MSC Susanna — 3ECU4 — position and weather

sailwx.info

Track history (hours):
 
Tides and Currents Weather Stations Pressure Air Temp Water Temp Dewpoint Dewpoint Depression Visibility Wind Speed Wind Dir Waves Ship Positions

MSC Susanna

Last reported at 2015-Sep-03 04:33 UTC. Time now 2015-Sep-03 19:16 UTC.
Position N 36°22' W 002°38'.

Length 337 m; draft 11.8 m.

Type: Ship (hazmat cat A). MMSI: 371466000.

Date/timePositionNaut miles runAvg speedWind from/ knotsBaromVisibWave heightAir tempDewpointWater temp
2015-Sep-03 04:33N 36°22' W 002°38'1717.3
2015-Sep-03 03:33N 36°25' W 002°17'1817.6
2015-Sep-03 02:33N 36°28' W 001°56'1717.3
2015-Sep-03 01:33N 36°32' W 001°35'7317.8
2015-Sep-02 21:29N 36°57' W 000°10'1617.8
2015-Sep-02 20:33N 37°01' E 000°10'1818.1
2015-Sep-02 19:33N 37°04' E 000°33'1818.0
2015-Sep-02 18:32N 37°06' E 000°56'34118.8
2015-Sep-02 00:22N 37°53' E 008°01'1618.5
2015-Sep-01 23:31N 37°55' E 008°21'1818.5
2015-Sep-01 22:33N 37°58' E 008°43'1918.3
2015-Sep-01 21:32N 38°00' E 009°07'1818.1
2015-Sep-01 20:33N 38°03' E 009°29'1818.1
2015-Sep-01 19:33N 38°05' E 009°52'1818.2
2015-Sep-01 18:33N 38°08' E 010°15'1818.2
2015-Sep-01 17:32N 38°10' E 010°38'1818.2
2015-Sep-01 16:33N 38°13' E 011°01'1918.4
2015-Sep-01 15:33N 38°15' E 011°24'1918.3
2015-Sep-01 14:30N 38°18' E 011°48'7418.7
2015-Sep-01 10:33N 38°19' E 013°22'2318.6
2015-Sep-01 09:20N 38°19' E 013°51'3318.4
2015-Sep-01 07:31N 38°19' E 014°34'1818.7
2015-Sep-01 06:32N 38°19' E 014°57'1818.8
2015-Sep-01 05:33N 38°22' E 015°20'1817.8
2015-Sep-01 04:33N 38°25' E 015°43'9 9.3
2015-Sep-01 03:33N 38°27' E 015°54'0 0.0
2015-Sep-01 02:32N 38°27' E 015°54'0 0.0
2015-Sep-01 01:32N 38°27' E 015°54'0 0.0
2015-Aug-31 22:26N 38°27' E 015°54'0 0.0
2015-Aug-31 21:32N 38°27' E 015°54'0 0.0
2015-Aug-31 20:32N 38°27' E 015°54'0 0.0
2015-Aug-31 19:32N 38°27' E 015°54'0 0.0
2015-Aug-31 18:32N 38°27' E 015°54'0 0.0
2015-Aug-31 17:32N 38°27' E 015°54'0 0.0
2015-Aug-31 16:32N 38°27' E 015°54'0 0.0
2015-Aug-31 15:29N 38°27' E 015°54'0 0.0
2015-Aug-31 14:32N 38°27' E 015°54'0 0.0
2015-Aug-31 13:32N 38°27' E 015°54'0 0.0
2015-Aug-31 12:32N 38°27' E 015°54'0 0.0
2015-Aug-31 11:32N 38°27' E 015°54'0 0.0
2015-Aug-31 10:32N 38°27' E 015°54'0 0.0
2015-Aug-31 09:32N 38°27' E 015°54'0 0.0
2015-Aug-31 08:32N 38°27' E 015°54'0 0.0
2015-Aug-31 07:32N 38°27' E 015°54'0 0.0
2015-Aug-31 06:30N 38°27' E 015°54'2 1.9
2015-Aug-31 05:34N 38°28' E 015°52'3 3.1
2015-Aug-31 04:33N 38°28' E 015°48'0 0.3
2015-Aug-31 03:31N 38°28' E 015°48'3 3.4
2015-Aug-31 02:33N 38°25' E 015°48'1414.5
2015-Aug-31 01:33N 38°13' E 015°37'1615.6
2015-Aug-31 00:33N 37°58' E 015°38'3416.7
2015-Aug-30 22:33N 37°45' E 016°17'52017.2
2015-Aug-29 16:23N 35°13' E 026°36'1716.5
2015-Aug-29 15:21N 35°03' E 026°52'1417.1
2015-Aug-29 14:33N 34°54' E 027°06'1717.0
2015-Aug-29 13:33N 34°44' E 027°22'3417.1
2015-Aug-29 11:33N 34°23' E 027°55'2317.3
2015-Aug-29 10:13N 34°09' E 028°17'1217.5
2015-Aug-29 09:33N 34°02' E 028°28'2217.6
2015-Aug-29 08:17N 33°48' E 028°49'1318.0
2015-Aug-29 07:33N 33°40' E 029°02'2019.2
2015-Aug-29 06:32N 33°28' E 029°21'12319.0
2015-Aug-29 00:04N 32°14' E 031°18'5515.6
2015-Aug-28 20:33N 31°40' E 032°08'1 1.0
2015-Aug-28 19:32N 31°40' E 032°09'1 0.5
2015-Aug-28 18:29N 31°40' E 032°10'8 7.8
2015-Aug-28 17:27N 31°33' E 032°14'1112.5
2015-Aug-28 16:33N 31°25' E 032°24'1212.4
2015-Aug-28 15:33N 31°13' E 032°21'9 8.5
2015-Aug-28 14:30N 31°05' E 032°19'1010.3
2015-Aug-28 13:31N 30°55' E 032°19'65 5.7
2015-Aug-28 02:05N 29°51' E 032°34'  
Track history (hours):
 
Tides and Currents Weather Stations Pressure Air Temp Water Temp Dewpoint Dewpoint Depression Visibility Wind Speed Wind Dir Waves Ship Positions

MSC Susanna

Last reported at 2015-Sep-03 04:33 UTC. Time now 2015-Sep-03 19:16 UTC.
Position N 36°22' W 002°38'.

Length 337 m; draft 11.8 m.

Type: Ship (hazmat cat A). MMSI: 371466000.

Date/timePositionNaut miles runAvg speedWind from/ knotsBaromVisibWave heightAir tempDewpointWater temp
2015-Sep-03 04:33N 36°22' W 002°38'1717.3
2015-Sep-03 03:33N 36°25' W 002°17'1817.6
2015-Sep-03 02:33N 36°28' W 001°56'1717.3
2015-Sep-03 01:33N 36°32' W 001°35'7317.8
2015-Sep-02 21:29N 36°57' W 000°10'1617.8
2015-Sep-02 20:33N 37°01' E 000°10'1818.1
2015-Sep-02 19:33N 37°04' E 000°33'1818.0
2015-Sep-02 18:32N 37°06' E 000°56'34118.8
2015-Sep-02 00:22N 37°53' E 008°01'1618.5
2015-Sep-01 23:31N 37°55' E 008°21'1818.5
2015-Sep-01 22:33N 37°58' E 008°43'1918.3
2015-Sep-01 21:32N 38°00' E 009°07'1818.1
2015-Sep-01 20:33N 38°03' E 009°29'1818.1
2015-Sep-01 19:33N 38°05' E 009°52'1818.2
2015-Sep-01 18:33N 38°08' E 010°15'1818.2
2015-Sep-01 17:32N 38°10' E 010°38'1818.2
2015-Sep-01 16:33N 38°13' E 011°01'1918.4
2015-Sep-01 15:33N 38°15' E 011°24'1918.3
2015-Sep-01 14:30N 38°18' E 011°48'7418.7
2015-Sep-01 10:33N 38°19' E 013°22'2318.6
2015-Sep-01 09:20N 38°19' E 013°51'3318.4
2015-Sep-01 07:31N 38°19' E 014°34'1818.7
2015-Sep-01 06:32N 38°19' E 014°57'1818.8
2015-Sep-01 05:33N 38°22' E 015°20'1817.8
2015-Sep-01 04:33N 38°25' E 015°43'9 9.3
2015-Sep-01 03:33N 38°27' E 015°54'0 0.0
2015-Sep-01 02:32N 38°27' E 015°54'0 0.0
2015-Sep-01 01:32N 38°27' E 015°54'0 0.0
2015-Aug-31 22:26N 38°27' E 015°54'0 0.0
2015-Aug-31 21:32N 38°27' E 015°54'0 0.0
2015-Aug-31 20:32N 38°27' E 015°54'0 0.0
2015-Aug-31 19:32N 38°27' E 015°54'0 0.0
2015-Aug-31 18:32N 38°27' E 015°54'0 0.0
2015-Aug-31 17:32N 38°27' E 015°54'0 0.0
2015-Aug-31 16:32N 38°27' E 015°54'0 0.0
2015-Aug-31 15:29N 38°27' E 015°54'0 0.0
2015-Aug-31 14:32N 38°27' E 015°54'0 0.0
2015-Aug-31 13:32N 38°27' E 015°54'0 0.0
2015-Aug-31 12:32N 38°27' E 015°54'0 0.0
2015-Aug-31 11:32N 38°27' E 015°54'0 0.0
2015-Aug-31 10:32N 38°27' E 015°54'0 0.0
2015-Aug-31 09:32N 38°27' E 015°54'0 0.0
2015-Aug-31 08:32N 38°27' E 015°54'0 0.0
2015-Aug-31 07:32N 38°27' E 015°54'0 0.0
2015-Aug-31 06:30N 38°27' E 015°54'2 1.9
2015-Aug-31 05:34N 38°28' E 015°52'3 3.1
2015-Aug-31 04:33N 38°28' E 015°48'0 0.3
2015-Aug-31 03:31N 38°28' E 015°48'3 3.4
2015-Aug-31 02:33N 38°25' E 015°48'1414.5
2015-Aug-31 01:33N 38°13' E 015°37'1615.6
2015-Aug-31 00:33N 37°58' E 015°38'3416.7
2015-Aug-30 22:33N 37°45' E 016°17'52017.2
2015-Aug-29 16:23N 35°13' E 026°36'1716.5
2015-Aug-29 15:21N 35°03' E 026°52'1417.1
2015-Aug-29 14:33N 34°54' E 027°06'1717.0
2015-Aug-29 13:33N 34°44' E 027°22'3417.1
2015-Aug-29 11:33N 34°23' E 027°55'2317.3
2015-Aug-29 10:13N 34°09' E 028°17'1217.5
2015-Aug-29 09:33N 34°02' E 028°28'2217.6
2015-Aug-29 08:17N 33°48' E 028°49'1318.0
2015-Aug-29 07:33N 33°40' E 029°02'2019.2
2015-Aug-29 06:32N 33°28' E 029°21'12319.0
2015-Aug-29 00:04N 32°14' E 031°18'5515.6
2015-Aug-28 20:33N 31°40' E 032°08'1 1.0
2015-Aug-28 19:32N 31°40' E 032°09'1 0.5
2015-Aug-28 18:29N 31°40' E 032°10'8 7.8
2015-Aug-28 17:27N 31°33' E 032°14'1112.5
2015-Aug-28 16:33N 31°25' E 032°24'1212.4
2015-Aug-28 15:33N 31°13' E 032°21'9 8.5
2015-Aug-28 14:30N 31°05' E 032°19'1010.3
2015-Aug-28 13:31N 30°55' E 032°19'65 5.7
2015-Aug-28 02:05N 29°51' E 032°34'  

Dump ship's entire track history